Time;durP1;ratioP1;P1;durP2;ratioP2;P2;SDS_P1;SDS_P2;PMS_P1;PMS_P2;Temp;Humidity;BMP_temperature;BMP_pressure;BME280_temperature;BME280_humidity;BME280_pressure;Samples;Min_cycle;Max_cycle;Signal;HPM_P1;HPM_P2
2022/04/03 00:00:01;;;;;;;;;;;;;;;3.17;100.00;97765.56;5072168;28;19957;-76
2022/04/03 00:02:28;;;;;;;;;;;;;;;3.28;100.00;97772.75;5075469;28;19936;-75
2022/04/03 00:04:55;;;;;;;;;;;;;;;3.42;100.00;97767.34;5075194;28;19925;-74
2022/04/03 00:07:21;;;;;;;;;;;;;;;3.40;100.00;97772.03;5072197;28;20726;-74
2022/04/03 00:09:48;;;;;;;;;;;;;;;3.36;100.00;97769.03;5071850;28;19968;-77
2022/04/03 00:12:14;;;;;;;;;;;;;;;3.45;100.00;97769.53;5074975;28;19940;-75
2022/04/03 00:14:40;;;;;;;;;;;;;;;3.64;100.00;97771.13;5074830;28;19928;-75
2022/04/03 00:17:07;;;;;;;;;;;;;;;3.60;100.00;97765.47;5074784;28;19936;-76
2022/04/03 00:19:35;;;;;;;;;;;;;;;3.66;100.00;97766.44;5071245;28;19924;-77
2022/04/03 00:22:03;;;;;;;;;;;;;;;3.61;100.00;97766.31;5072945;28;19940;-76
2022/04/03 00:24:29;;;;;;;;;;;;;;;3.64;100.00;97771.94;5076440;28;19956;-76
2022/04/03 00:26:56;;;;;;;;;;;;;;;3.91;100.00;97769.75;5076230;28;20023;-76
2022/04/03 00:29:23;;;;;;;;;;;;;;;4.07;100.00;97770.97;5071607;28;20201;-77
2022/04/03 00:31:49;;;;;;;;;;;;;;;3.41;100.00;97776.28;5073243;28;19925;-77
2022/04/03 00:34:16;;;;;;;;;;;;;;;3.44;100.00;97781.91;5078494;28;19983;-77
2022/04/03 00:36:44;;;;;;;;;;;;;;;3.52;100.00;97780.81;5078561;28;20109;-76
2022/04/03 00:39:10;;;;;;;;;;;;;;;3.41;100.00;97776.28;5078350;28;19931;-75
2022/04/03 00:41:37;;;;;;;;;;;;;;;3.65;100.00;97772.75;5074772;28;19992;-76
2022/04/03 00:44:04;;;;;;;;;;;;;;;3.77;100.00;97776.25;5074734;28;19955;-76
2022/04/03 00:46:33;;;;;;;;;;;;;;;3.91;100.00;97774.22;5074850;28;19997;-76
2022/04/03 00:49:00;;;;;;;;;;;;;;;3.99;100.00;97777.38;5076206;28;19957;-76
2022/04/03 00:51:26;;;;;;;;;;;;;;;4.01;100.00;97772.69;5063502;28;19932;-77
2022/04/03 00:53:54;;;;;;;;;;;;;;;3.75;100.00;97768.53;5071919;28;19988;-76
2022/04/03 00:56:21;;;;;;;;;;;;;;;3.80;100.00;97781.91;5078195;28;19979;-75
2022/04/03 00:58:48;;;;;;;;;;;;;;;3.69;100.00;97773.91;5078611;28;20376;-76
2022/04/03 01:01:15;;;;;;;;;;;;;;;3.92;100.00;97773.22;5076993;28;19993;-78
2022/04/03 01:03:41;;;;;;;;;;;;;;;3.84;100.00;97776.97;5075448;28;19963;-77
2022/04/03 01:06:08;;;;;;;;;;;;;;;3.97;100.00;97782.06;5078156;28;19951;-76
2022/04/03 01:08:34;;;;;;;;;;;;;;;4.08;100.00;97778.69;5078161;28;19963;-75
2022/04/03 01:11:02;;;;;;;;;;;;;;;4.17;100.00;97777.34;5078069;28;19928;-74
2022/04/03 01:13:29;;;;;;;;;;;;;;;4.00;100.00;97781.63;5074320;28;20046;-76
2022/04/03 01:15:57;;;;;;;;;;;;;;;3.92;100.00;97774.03;5074380;28;19925;-76
2022/04/03 01:18:24;;;;;;;;;;;;;;;4.01;100.00;97783.25;5077633;28;19978;-77
2022/04/03 01:20:52;;;;;;;;;;;;;;;3.98;100.00;97778.41;5077735;28;19925;-76
2022/04/03 01:23:19;;;;;;;;;;;;;;;3.98;100.00;97783.69;5076388;28;20353;-77
2022/04/03 01:25:47;;;;;;;;;;;;;;;3.69;100.00;97784.47;5075145;28;20437;-76
2022/04/03 01:28:13;;;;;;;;;;;;;;;3.58;100.00;97777.31;5077333;28;19932;-74
2022/04/03 01:30:40;;;;;;;;;;;;;;;3.63;100.00;97785.34;5078898;28;19924;-75
2022/04/03 01:33:06;;;;;;;;;;;;;;;3.49;100.00;97789.19;5077425;28;20461;-75
2022/04/03 01:35:33;;;;;;;;;;;;;;;3.30;100.00;97784.94;5076304;28;19971;-75
2022/04/03 01:37:59;;;;;;;;;;;;;;;3.33;100.00;97781.84;5075267;28;19947;-75
2022/04/03 01:40:26;;;;;;;;;;;;;;;3.45;100.00;97780.91;5079606;28;19963;-76
2022/04/03 01:42:53;;;;;;;;;;;;;;;3.32;100.00;97785.50;5077861;28;19996;-77
2022/04/03 01:45:20;;;;;;;;;;;;;;;3.31;100.00;97781.28;5077018;28;19936;-76
2022/04/03 01:47:46;;;;;;;;;;;;;;;3.35;100.00;97785.06;5074647;28;19952;-77
2022/04/03 01:50:13;;;;;;;;;;;;;;;3.14;100.00;97784.50;5076183;28;19925;-78
2022/04/03 01:52:39;;;;;;;;;;;;;;;3.14;100.00;97787.13;5078692;28;19973;-77
2022/04/03 01:55:06;;;;;;;;;;;;;;;3.29;100.00;97792.03;5076580;28;20295;-77
2022/04/03 01:57:33;;;;;;;;;;;;;;;3.54;100.00;97782.22;5075287;28;19921;-75
2022/04/03 02:00:01;;;;;;;;;;;;;;;3.52;100.00;97789.56;5075624;28;19925;-75
2022/04/03 02:02:27;;;;;;;;;;;;;;;3.32;100.00;97788.97;5063393;28;19960;-75
2022/04/03 02:04:53;;;;;;;;;;;;;;;3.51;100.00;97792.41;5071654;28;20342;-75
2022/04/03 02:07:20;;;;;;;;;;;;;;;3.53;100.00;97783.22;5078458;28;19971;-75
2022/04/03 02:09:47;;;;;;;;;;;;;;;3.59;100.00;97790.28;5077551;28;20017;-74
2022/04/03 02:12:13;;;;;;;;;;;;;;;3.49;100.00;97787.38;5075707;28;19948;-74
2022/04/03 02:14:40;;;;;;;;;;;;;;;3.43;100.00;97798.81;5077490;28;19968;-74
2022/04/03 02:17:08;;;;;;;;;;;;;;;3.08;100.00;97790.63;5077113;28;19956;-75
2022/04/03 02:19:34;;;;;;;;;;;;;;;3.04;100.00;97783.38;5074346;28;19933;-75
2022/04/03 02:22:01;;;;;;;;;;;;;;;3.15;100.00;97783.47;5074030;28;19984;-75
2022/04/03 02:24:27;;;;;;;;;;;;;;;3.13;100.00;97793.41;5076787;28;19970;-75
2022/04/03 02:26:54;;;;;;;;;;;;;;;3.22;100.00;97794.75;5076820;28;20172;-76
2022/04/03 02:29:20;;;;;;;;;;;;;;;3.15;100.00;97798.50;5075057;28;19971;-76
2022/04/03 02:31:46;;;;;;;;;;;;;;;3.12;100.00;97798.94;5074471;28;19928;-76
2022/04/03 02:34:14;;;;;;;;;;;;;;;3.21;100.00;97795.78;5076873;28;19980;-76
2022/04/03 02:36:42;;;;;;;;;;;;;;;3.37;100.00;97799.69;5078052;28;19929;-75
2022/04/03 02:39:09;;;;;;;;;;;;;;;3.47;100.00;97796.50;5075263;28;19924;-75
2022/04/03 02:41:35;;;;;;;;;;;;;;;3.61;100.00;97805.91;5073712;28;19932;-75
2022/04/03 02:44:02;;;;;;;;;;;;;;;3.43;100.00;97795.34;5074040;28;19996;-77
2022/04/03 02:46:30;;;;;;;;;;;;;;;3.53;100.00;97807.00;5076720;28;19962;-75
2022/04/03 02:48:57;;;;;;;;;;;;;;;3.56;100.00;97803.13;5076483;28;19939;-75
2022/04/03 02:51:25;;;;;;;;;;;;;;;3.66;100.00;97803.41;5073553;28;19925;-75
2022/04/03 02:53:51;;;;;;;;;;;;;;;3.74;100.00;97800.47;5073151;28;19956;-75
2022/04/03 02:56:18;;;;;;;;;;;;;;;3.87;100.00;97808.22;5075360;28;20058;-75
2022/04/03 02:58:44;;;;;;;;;;;;;;;3.91;100.00;97808.56;5077545;28;19925;-75
2022/04/03 03:01:11;;;;;;;;;;;;;;;3.78;100.00;97807.72;5075918;28;19986;-75
2022/04/03 03:03:37;;;;;;;;;;;;;;;3.91;100.00;97809.38;5072607;28;20114;-75
2022/04/03 03:06:04;;;;;;;;;;;;;;;3.69;100.00;97816.16;5075139;28;20224;-76
2022/04/03 03:08:31;;;;;;;;;;;;;;;3.76;100.00;97817.72;5078249;28;19991;-76
2022/04/03 03:10:58;;;;;;;;;;;;;;;3.82;100.00;97808.09;5076189;28;19960;-76
2022/04/03 03:13:24;;;;;;;;;;;;;;;3.79;100.00;97808.53;5072873;28;19925;-76
2022/04/03 03:15:51;;;;;;;;;;;;;;;3.75;100.00;97807.34;5074544;28;20718;-75
2022/04/03 03:18:17;;;;;;;;;;;;;;;3.83;100.00;97809.72;5075184;28;19992;-76
2022/04/03 03:20:43;;;;;;;;;;;;;;;3.94;100.00;97808.94;5075998;28;20416;-76
2022/04/03 03:23:10;;;;;;;;;;;;;;;3.97;100.00;97813.78;5074605;28;19924;-76
2022/04/03 03:25:38;;;;;;;;;;;;;;;4.01;100.00;97807.03;5073695;28;19925;-75
2022/04/03 03:28:05;;;;;;;;;;;;;;;4.03;100.00;97812.88;5074000;28;19925;-75
2022/04/03 03:30:31;;;;;;;;;;;;;;;3.97;100.00;97813.78;5075632;28;19952;-74
2022/04/03 03:32:57;;;;;;;;;;;;;;;4.03;100.00;97812.88;5076519;28;19929;-75
2022/04/03 03:35:24;;;;;;;;;;;;;;;4.10;100.00;97821.53;5073428;28;19947;-76
2022/04/03 03:37:50;;;;;;;;;;;;;;;3.99;100.00;97817.00;5073350;28;20199;-77
2022/04/03 03:40:17;;;;;;;;;;;;;;;3.97;100.00;97821.72;5074481;28;19935;-76
2022/04/03 03:42:44;;;;;;;;;;;;;;;4.03;100.00;97820.81;5075468;28;19992;-75
2022/04/03 03:45:12;;;;;;;;;;;;;;;4.08;100.00;97820.16;5073920;28;20016;-75
2022/04/03 03:47:38;;;;;;;;;;;;;;;4.11;100.00;97817.88;5073361;28;20337;-75
2022/04/03 03:50:05;;;;;;;;;;;;;;;3.96;100.00;97822.72;5072575;28;20114;-75
2022/04/03 03:52:31;;;;;;;;;;;;;;;4.00;100.00;97823.09;5077159;28;19978;-75
2022/04/03 03:54:58;;;;;;;;;;;;;;;3.72;100.00;97821.81;5076113;28;19924;-76
2022/04/03 03:57:24;;;;;;;;;;;;;;;3.80;100.00;97833.91;5075140;28;19932;-76
2022/04/03 03:59:52;;;;;;;;;;;;;;;3.87;100.00;97836.50;5075349;28;19924;-75
2022/04/03 04:02:18;;;;;;;;;;;;;;;3.86;100.00;97833.03;5076555;28;19992;-76
2022/04/03 04:04:45;;;;;;;;;;;;;;;3.92;100.00;97836.63;5077944;28;19931;-75
2022/04/03 04:07:11;;;;;;;;;;;;;;;3.97;100.00;97831.47;5079994;28;20015;-75
2022/04/03 04:09:39;;;;;;;;;;;;;;;4.02;100.00;97843.00;5077854;28;19967;-76
2022/04/03 04:12:06;;;;;;;;;;;;;;;3.62;100.00;97832.06;5078903;28;19929;-75
2022/04/03 04:14:32;;;;;;;;;;;;;;;3.71;100.00;97841.31;5080471;28;19925;-75
2022/04/03 04:17:00;;;;;;;;;;;;;;;3.81;100.00;97846.09;5081372;28;19924;-75
2022/04/03 04:19:26;;;;;;;;;;;;;;;3.80;100.00;97844.50;5065251;28;19925;-75
2022/04/03 04:21:53;;;;;;;;;;;;;;;3.48;100.00;97853.56;5068911;28;19925;-74
2022/04/03 04:24:19;;;;;;;;;;;;;;;3.45;100.00;97854.81;5079344;28;19985;-75
2022/04/03 04:26:46;;;;;;;;;;;;;;;3.66;100.00;97858.84;5080854;28;20000;-75
2022/04/03 04:29:12;;;;;;;;;;;;;;;3.80;100.00;97873.53;5077614;28;19967;-76
2022/04/03 04:31:39;;;;;;;;;;;;;;;3.85;100.00;97862.31;5075945;28;19932;-75
2022/04/03 04:34:07;;;;;;;;;;;;;;;3.79;100.00;97869.28;5077811;28;19925;-75
2022/04/03 04:36:34;;;;;;;;;;;;;;;3.85;100.00;97865.75;5079678;28;19925;-75
2022/04/03 04:39:01;;;;;;;;;;;;;;;3.70;100.00;97871.41;5080518;28;20239;-75
2022/04/03 04:41:27;;;;;;;;;;;;;;;3.79;100.00;97872.72;5077124;28;19925;-75
2022/04/03 04:43:54;;;;;;;;;;;;;;;3.89;100.00;97866.94;5077091;28;20390;-75
2022/04/03 04:46:20;;;;;;;;;;;;;;;3.87;100.00;97871.63;5079957;28;19928;-75
2022/04/03 04:48:47;;;;;;;;;;;;;;;3.98;100.00;97873.53;5080328;28;19951;-75
2022/04/03 04:51:14;;;;;;;;;;;;;;;3.98;100.00;97872.72;5078497;28;20388;-75
2022/04/03 04:53:41;;;;;;;;;;;;;;;4.03;100.00;97889.50;5075447;28;20004;-75
2022/04/03 04:56:07;;;;;;;;;;;;;;;4.02;100.00;97885.28;5076494;28;19932;-75
2022/04/03 04:58:34;;;;;;;;;;;;;;;3.64;100.00;97885.50;5078970;28;19964;-75
2022/04/03 05:01:00;;;;;;;;;;;;;;;3.54;100.00;97887.00;5078759;28;19950;-75
2022/04/03 05:03:26;;;;;;;;;;;;;;;3.53;100.00;97890.69;5075371;28;19924;-75
2022/04/03 05:05:53;;;;;;;;;;;;;;;3.43;100.00;97895.66;5076386;28;19936;-75
2022/04/03 05:08:20;;;;;;;;;;;;;;;3.56;100.00;97887.63;5078339;28;19924;-76
2022/04/03 05:10:47;;;;;;;;;;;;;;;3.66;100.00;97895.81;5079174;28;19924;-75
2022/04/03 05:13:13;;;;;;;;;;;;;;;3.72;100.00;97900.22;5077341;28;19973;-75
2022/04/03 05:15:40;;;;;;;;;;;;;;;3.84;100.00;97898.47;5075258;28;19925;-75
2022/04/03 05:18:06;;;;;;;;;;;;;;;3.86;100.00;97904.34;5074986;28;19975;-75
2022/04/03 05:20:33;;;;;;;;;;;;;;;3.79;100.00;97900.97;5073316;28;19951;-75
2022/04/03 05:23:00;;;;;;;;;;;;;;;3.66;100.00;97901.91;5079995;28;19924;-75
2022/04/03 05:25:28;;;;;;;;;;;;;;;3.59;100.00;97905.66;5068415;28;19981;-75
2022/04/03 05:27:55;;;;;;;;;;;;;;;3.51;100.00;97903.28;5064593;28;19956;-76
2022/04/03 05:30:22;;;;;;;;;;;;;;;3.66;100.00;97907.19;5073432;28;19950;-76
2022/04/03 05:32:49;;;;;;;;;;;;;;;3.78;100.00;97918.66;5078891;28;20381;-75
2022/04/03 05:35:15;;;;;;;;;;;;;;;3.70;100.00;97910.22;5080566;28;19924;-75
2022/04/03 05:37:41;;;;;;;;;;;;;;;3.43;100.00;97917.59;5069161;28;19975;-76
2022/04/03 05:40:10;;;;;;;;;;;;;;;3.35;100.00;97917.03;5068515;28;19939;-75
2022/04/03 05:42:38;;;;;;;;;;;;;;;2.94;100.00;97928.16;5070433;28;19950;-75
2022/04/03 05:45:05;;;;;;;;;;;;;;;2.87;100.00;97933.47;5078631;28;19924;-75
2022/04/03 05:47:32;;;;;;;;;;;;;;;3.14;100.00;97937.53;5075489;28;20316;-75
2022/04/03 05:49:59;;;;;;;;;;;;;;;3.39;100.00;97932.25;5074516;28;20271;-76
2022/04/03 05:52:25;;;;;;;;;;;;;;;3.49;100.00;97937.03;5066249;28;19955;-75
2022/04/03 05:54:52;;;;;;;;;;;;;;;3.24;100.00;97937.84;5074377;28;19943;-75
2022/04/03 05:57:18;;;;;;;;;;;;;;;3.29;100.00;97953.03;5078043;28;20015;-75
2022/04/03 05:59:46;;;;;;;;;;;;;;;3.00;100.00;97943.91;5079076;28;19939;-75
2022/04/03 06:02:13;;;;;;;;;;;;;;;2.86;100.00;97945.03;5077170;28;19925;-75
2022/04/03 06:04:39;;;;;;;;;;;;;;;2.89;100.00;97944.59;5074206;28;20298;-75
2022/04/03 06:07:07;;;;;;;;;;;;;;;3.07;100.00;97949.94;5074551;28;20221;-75
2022/04/03 06:09:34;;;;;;;;;;;;;;;3.08;100.00;97962.13;5079147;28;19935;-75
2022/04/03 06:12:01;;;;;;;;;;;;;;;2.36;100.00;97961.72;5077140;28;19924;-76
2022/04/03 06:14:27;;;;;;;;;;;;;;;2.31;100.00;97964.19;5078979;28;19933;-76
2022/04/03 06:16:55;;;;;;;;;;;;;;;2.32;100.00;97971.09;5078816;28;19924;-76
2022/04/03 06:19:21;;;;;;;;;;;;;;;2.71;100.00;97973.53;5074752;28;19935;-76
2022/04/03 06:21:48;;;;;;;;;;;;;;;2.77;100.00;97971.84;5073825;28;19924;-75
2022/04/03 06:24:14;;;;;;;;;;;;;;;2.48;100.00;97978.50;5075575;28;19925;-75
2022/04/03 06:26:40;;;;;;;;;;;;;;;2.71;100.00;97981.44;5076946;28;19974;-75
2022/04/03 06:29:07;;;;;;;;;;;;;;;2.87;100.00;97977.50;5075930;28;19936;-75
2022/04/03 06:31:33;;;;;;;;;;;;;;;3.06;100.00;97987.13;5073618;28;20003;-76
2022/04/03 06:34:02;;;;;;;;;;;;;;;2.43;100.00;97983.59;5073287;28;19948;-75
2022/04/03 06:36:29;;;;;;;;;;;;;;;2.64;100.00;97975.38;5066892;28;19925;-75
2022/04/03 06:38:55;;;;;;;;;;;;;;;2.62;100.00;97980.06;5073802;28;19939;-75
2022/04/03 06:41:23;;;;;;;;;;;;;;;2.69;100.00;97983.47;5076642;28;19932;-76
2022/04/03 06:43:49;;;;;;;;;;;;;;;2.85;100.00;97988.22;5075999;28;19936;-75
2022/04/03 06:46:16;;;;;;;;;;;;;;;3.19;100.00;97994.91;5076836;28;19975;-76
2022/04/03 06:48:42;;;;;;;;;;;;;;;3.24;100.00;97989.81;5078224;28;19947;-75
2022/04/03 06:51:10;;;;;;;;;;;;;;;3.11;100.00;97992.56;5076822;28;20705;-76
2022/04/03 06:53:37;;;;;;;;;;;;;;;2.99;100.00;97989.78;5073303;28;19925;-76
2022/04/03 06:56:03;;;;;;;;;;;;;;;3.23;100.00;97996.94;5074571;28;19960;-76
2022/04/03 06:58:30;;;;;;;;;;;;;;;2.83;100.00;97994.75;5076773;28;19971;-76
2022/04/03 07:00:56;;;;;;;;;;;;;;;2.97;100.00;98007.63;5076440;28;20274;-75
2022/04/03 07:03:22;;;;;;;;;;;;;;;2.86;100.00;97999.59;5073533;28;19928;-75
2022/04/03 07:05:49;;;;;;;;;;;;;;;2.66;100.00;97999.72;5073098;28;19925;-75
2022/04/03 07:08:17;;;;;;;;;;;;;;;2.28;100.00;98004.94;5076299;28;19925;-75
2022/04/03 07:10:44;;;;;;;;;;;;;;;2.31;100.00;98007.16;5078261;28;19999;-75
2022/04/03 07:13:10;;;;;;;;;;;;;;;2.60;100.00;98016.38;5076228;28;19935;-75
2022/04/03 07:15:37;;;;;;;;;;;;;;;2.40;100.00;98016.44;5074135;28;19932;-75
2022/04/03 07:18:04;;;;;;;;;;;;;;;2.46;100.00;98009.53;5074398;28;19987;-75
2022/04/03 07:20:30;;;;;;;;;;;;;;;2.60;100.00;98011.91;5077978;28;20013;-75
2022/04/03 07:22:56;;;;;;;;;;;;;;;2.83;100.00;98016.66;5076366;28;19925;-76
2022/04/03 07:25:24;;;;;;;;;;;;;;;2.85;100.00;98006.69;5074696;28;19971;-75
2022/04/03 07:27:51;;;;;;;;;;;;;;;2.72;100.00;98022.63;5074207;28;19936;-76
2022/04/03 07:30:17;;;;;;;;;;;;;;;2.76;100.00;98023.78;5076053;28;19925;-76
2022/04/03 07:32:43;;;;;;;;;;;;;;;2.53;100.00;98026.13;5079216;28;19932;-76
2022/04/03 07:35:11;;;;;;;;;;;;;;;2.22;100.00;98042.66;5077019;28;19952;-75
2022/04/03 07:37:38;;;;;;;;;;;;;;;2.44;100.00;98038.75;5074912;28;19932;-76
2022/04/03 07:40:06;;;;;;;;;;;;;;;2.26;100.00;98040.44;5075439;28;19925;-76
2022/04/03 07:42:35;;;;;;;;;;;;;;;2.63;100.00;98031.78;5078696;28;20019;-75
2022/04/03 07:45:01;;;;;;;;;;;;;;;2.48;100.00;98047.03;5068331;28;20012;-75
2022/04/03 07:47:28;;;;;;;;;;;;;;;2.16;100.00;98054.84;5080452;28;19924;-76
2022/04/03 07:49:54;;;;;;;;;;;;;;;2.53;100.00;98053.31;5080138;28;20437;-75
2022/04/03 07:52:20;;;;;;;;;;;;;;;2.45;100.00;98050.06;5075879;28;19928;-75
2022/04/03 07:54:47;;;;;;;;;;;;;;;2.41;100.00;98059.44;5073818;28;19963;-76
2022/04/03 07:57:13;;;;;;;;;;;;;;;2.73;100.00;98058.50;5069356;28;19933;-75
2022/04/03 07:59:42;;;;;;;;;;;;;;;3.08;100.00;98054.47;5075820;28;20030;-75
2022/04/03 08:02:08;;;;;;;;;;;;;;;2.96;100.00;98058.81;5074708;28;19925;-75
2022/04/03 08:04:35;;;;;;;;;;;;;;;2.86;100.00;98062.91;5072587;28;19952;-77
2022/04/03 08:07:01;;;;;;;;;;;;;;;3.11;100.00;98066.44;5072266;28;19971;-76
2022/04/03 08:09:28;;;;;;;;;;;;;;;3.05;100.00;98062.00;5075827;28;19932;-76
2022/04/03 08:11:54;;;;;;;;;;;;;;;3.10;100.00;98067.44;5075882;28;19964;-76
2022/04/03 08:14:20;;;;;;;;;;;;;;;3.48;100.00;98070.06;5076834;28;20247;-75
2022/04/03 08:16:48;;;;;;;;;;;;;;;3.61;100.00;98072.59;5076168;28;19924;-75
2022/04/03 08:19:16;;;;;;;;;;;;;;;3.50;100.00;98070.63;5074129;28;19964;-75
2022/04/03 08:21:43;;;;;;;;;;;;;;;3.80;100.00;98077.75;5072733;28;20248;-75
2022/04/03 08:24:09;;;;;;;;;;;;;;;4.03;100.00;98078.97;5074566;28;19925;-76
2022/04/03 08:26:36;;;;;;;;;;;;;;;4.06;100.00;98081.16;5076649;28;20650;-76
2022/04/03 08:29:02;;;;;;;;;;;;;;;3.88;100.00;98089.88;5077492;28;19925;-76
2022/04/03 08:31:29;;;;;;;;;;;;;;;3.93;100.00;98086.59;5072833;28;19920;-76
2022/04/03 08:33:57;;;;;;;;;;;;;;;3.69;100.00;98096.91;5073717;28;19925;-75
2022/04/03 08:36:24;;;;;;;;;;;;;;;3.48;100.00;98088.53;5075561;28;19925;-76
2022/04/03 08:38:51;;;;;;;;;;;;;;;3.48;100.00;98089.34;5076930;28;19947;-76
2022/04/03 08:41:17;;;;;;;;;;;;;;;3.52;100.00;98095.03;5073575;28;19992;-77
2022/04/03 08:43:46;;;;;;;;;;;;;;;3.61;100.00;98097.19;5073758;28;20011;-76
2022/04/03 08:46:12;;;;;;;;;;;;;;;3.43;100.00;98097.09;5073877;28;19920;-76
2022/04/03 08:48:43;;;;;;;;;;;;;;;3.16;100.00;98091.16;5075656;28;19955;-76
2022/04/03 08:51:10;;;;;;;;;;;;;;;3.41;100.00;98104.41;5074853;28;20034;-75
2022/04/03 08:53:39;;;;;;;;;;;;;;;3.59;100.00;98101.84;5075208;28;20343;-75
2022/04/03 08:56:06;;;;;;;;;;;;;;;3.67;100.00;98098.16;5078186;28;19925;-76
2022/04/03 08:58:32;;;;;;;;;;;;;;;3.80;100.00;98093.59;5082160;28;19925;-76
2022/04/03 09:00:59;;;;;;;;;;;;;;;3.82;100.00;98106.56;5081926;28;19925;-76
2022/04/03 09:03:25;;;;;;;;;;;;;;;3.65;100.00;98110.78;5077818;28;19936;-76
2022/04/03 09:05:51;;;;;;;;;;;;;;;3.47;100.00;98103.56;5076839;28;19925;-76
2022/04/03 09:08:20;;;;;;;;;;;;;;;3.59;100.00;98103.72;5079653;28;19948;-76
2022/04/03 09:11:02;;;;;;;;;;;;;;;4.06;100.00;98103.13;5080686;28;19956;-77
2022/04/03 09:13:28;;;;;;;;;;;;;;;4.27;100.00;98102.72;5071399;28;19928;-76
2022/04/03 09:15:55;;;;;;;;;;;;;;;4.29;100.00;98103.34;5075915;28;20007;-76
2022/04/03 09:18:21;;;;;;;;;;;;;;;4.26;100.00;98100.31;5078785;28;19929;-76
2022/04/03 09:20:48;;;;;;;;;;;;;;;4.29;100.00;98113.91;5080372;28;19935;-76
2022/04/03 09:23:17;;;;;;;;;;;;;;;4.12;100.00;98110.19;5078286;28;19962;-76
2022/04/03 09:25:46;;;;;;;;;;;;;;;3.97;100.00;98115.00;5075224;28;19959;-76
2022/04/03 09:28:13;;;;;;;;;;;;;;;4.05;100.00;98116.56;5077289;28;19935;-76
2022/04/03 09:30:42;;;;;;;;;;;;;;;3.96;100.00;98116.00;5078557;28;20151;-76
2022/04/03 09:33:09;;;;;;;;;;;;;;;4.14;100.00;98116.06;5078950;28;19932;-76
2022/04/03 09:35:51;;;;;;;;;;;;;;;4.23;100.00;98109.50;5075324;28;19955;-76
2022/04/03 09:38:17;;;;;;;;;;;;;;;4.25;100.00;98110.06;5077028;28;19924;-76
2022/04/03 09:40:47;;;;;;;;;;;;;;;4.05;100.00;98112.09;5079818;28;19959;-76
2022/04/03 09:43:14;;;;;;;;;;;;;;;3.88;100.00;98111.00;5076645;28;19929;-75
2022/04/03 09:45:44;;;;;;;;;;;;;;;3.79;100.00;98114.94;5075088;28;19943;-76
2022/04/03 09:48:18;;;;;;;;;;;;;;;3.68;100.00;98110.34;5076575;28;19924;-76
2022/04/03 09:50:54;;;;;;;;;;;;;;;3.62;100.00;98109.34;5078736;28;19935;-76
2022/04/03 09:53:21;;;;;;;;;;;;;;;3.80;100.00;98114.72;5075568;28;19936;-76
2022/04/03 09:55:49;;;;;;;;;;;;;;;3.89;100.00;98112.63;5075642;28;19929;-75
2022/04/03 09:58:16;;;;;;;;;;;;;;;4.22;100.00;98107.06;5077710;28;19968;-76
2022/04/03 10:00:44;;;;;;;;;;;;;;;4.24;100.00;98116.38;5079318;28;20471;-77
2022/04/03 10:03:11;;;;;;;;;;;;;;;4.42;100.00;98112.16;5077145;28;19924;-75
2022/04/03 10:05:38;;;;;;;;;;;;;;;4.57;100.00;98113.41;5074314;28;20460;-75
2022/04/03 10:08:05;;;;;;;;;;;;;;;4.84;100.00;98112.09;5074811;28;19925;-75
2022/04/03 10:10:33;;;;;;;;;;;;;;;4.66;100.00;98119.22;5077970;28;19920;-76
2022/04/03 10:13:01;;;;;;;;;;;;;;;4.61;99.02;98111.16;5065309;28;19985;-76
2022/04/03 10:15:28;;;;;;;;;;;;;;;4.42;97.87;98109.50;5068152;28;19931;-76
2022/04/03 10:17:55;;;;;;;;;;;;;;;4.23;95.92;98108.69;5071870;28;20034;-76
2022/04/03 10:20:24;;;;;;;;;;;;;;;4.25;98.25;98106.63;5056655;28;19955;-75
2022/04/03 10:22:54;;;;;;;;;;;;;;;4.13;92.31;98109.16;5070293;28;19925;-76
2022/04/03 10:25:27;;;;;;;;;;;;;;;4.01;94.05;98105.63;5069020;28;19925;-76
2022/04/03 10:27:55;;;;;;;;;;;;;;;3.93;100.00;98108.50;5069752;28;19925;-75
2022/04/03 10:30:33;;;;;;;;;;;;;;;4.24;100.00;98113.72;5072881;28;19924;-75
2022/04/03 10:33:00;;;;;;;;;;;;;;;4.26;100.00;98108.25;5073683;28;20024;-76
2022/04/03 10:35:26;;;;;;;;;;;;;;;4.22;100.00;98115.78;5060896;28;19924;-77
2022/04/03 10:37:59;;;;;;;;;;;;;;;4.14;100.00;98115.25;5077033;28;20215;-76
2022/04/03 10:40:29;;;;;;;;;;;;;;;4.40;100.00;98108.91;5066578;28;19935;-76
2022/04/03 10:42:58;;;;;;;;;;;;;;;4.20;100.00;98104.63;5080272;28;19973;-76
2022/04/03 10:45:27;;;;;;;;;;;;;;;4.10;100.00;98114.06;5074915;28;19953;-77
2022/04/03 10:48:23;;;;;;;;;;;;;;;4.10;98.91;98112.25;5074071;28;19931;-76
2022/04/03 10:50:57;;;;;;;;;;;;;;;3.69;97.06;98115.41;5069042;28;19925;-76
2022/04/03 10:53:24;;;;;;;;;;;;;;;3.58;100.00;98113.47;5077748;28;19925;-75
2022/04/03 10:55:56;;;;;;;;;;;;;;;3.71;100.00;98116.00;5078372;28;19947;-74
2022/04/03 10:58:23;;;;;;;;;;;;;;;3.80;98.90;98113.91;5075646;28;19925;-75
2022/04/03 11:00:51;;;;;;;;;;;;;;;4.03;100.00;98118.59;5074676;28;19925;-75
2022/04/03 11:03:31;;;;;;;;;;;;;;;4.11;97.56;98116.50;5076985;28;19951;-75
2022/04/03 11:05:58;;;;;;;;;;;;;;;4.16;95.27;98108.72;5079395;28;19929;-76
2022/04/03 11:08:39;;;;;;;;;;;;;;;4.16;97.03;98102.63;5075898;28;19974;-76
2022/04/03 11:11:08;;;;;;;;;;;;;;;4.25;98.72;98107.44;5076224;28;19925;-75
2022/04/03 11:13:38;;;;;;;;;;;;;;;4.30;95.02;98109.44;5080208;28;19967;-76
2022/04/03 11:16:06;;;;;;;;;;;;;;;3.93;93.48;98116.44;5074612;28;19925;-76
2022/04/03 11:18:33;;;;;;;;;;;;;;;4.00;96.58;98108.47;5077400;28;19951;-75
2022/04/03 11:21:06;;;;;;;;;;;;;;;4.38;100.00;98103.03;5077252;28;20357;-76
2022/04/03 11:23:35;;;;;;;;;;;;;;;4.49;97.26;98097.03;5046470;28;19948;-76
2022/04/03 11:26:01;;;;;;;;;;;;;;;4.57;96.45;98104.69;5067346;28;19936;-76
2022/04/03 11:28:28;;;;;;;;;;;;;;;4.30;87.86;98101.50;5078374;28;20318;-76
2022/04/03 11:30:55;;;;;;;;;;;;;;;4.40;92.74;98104.44;5077158;28;19925;-76
2022/04/03 11:33:24;;;;;;;;;;;;;;;4.44;93.46;98107.44;5073875;28;19985;-76
2022/04/03 11:35:53;;;;;;;;;;;;;;;4.45;95.01;98106.44;5072421;28;20137;-76
2022/04/03 11:38:20;;;;;;;;;;;;;;;4.20;93.16;98096.72;5077375;28;19927;-76
2022/04/03 11:40:47;;;;;;;;;;;;;;;4.13;92.80;98113.63;5076791;28;19924;-77
2022/04/03 11:43:17;;;;;;;;;;;;;;;4.10;94.01;98108.78;5076401;28;19996;-75
2022/04/03 11:45:51;;;;;;;;;;;;;;;4.23;93.73;98109.50;5074385;28;19936;-76
2022/04/03 11:48:18;;;;;;;;;;;;;;;4.52;96.14;98110.59;5076486;28;19925;-77
2022/04/03 11:50:46;;;;;;;;;;;;;;;4.57;93.59;98109.97;5077848;28;19924;-75
2022/04/03 11:53:13;;;;;;;;;;;;;;;4.59;90.98;98110.53;5074928;28;19924;-76
2022/04/03 11:55:39;;;;;;;;;;;;;;;4.49;90.48;98105.75;5072557;28;20020;-77
2022/04/03 11:58:06;;;;;;;;;;;;;;;4.25;89.46;98107.44;5073634;28;19963;-76
2022/04/03 12:00:32;;;;;;;;;;;;;;;4.08;90.17;98103.72;5076117;28;20425;-75
2022/04/03 12:02:59;;;;;;;;;;;;;;;4.06;91.65;98108.41;5076435;28;19947;-76
2022/04/03 12:05:26;;;;;;;;;;;;;;;4.01;88.20;98100.31;5073633;28;19931;-76
2022/04/03 12:07:54;;;;;;;;;;;;;;;3.85;87.65;98108.78;5073847;28;19936;-76
2022/04/03 12:10:24;;;;;;;;;;;;;;;3.91;88.72;98110.56;5076369;28;20408;-77
2022/04/03 12:12:51;;;;;;;;;;;;;;;4.18;91.96;98098.75;5076439;28;19980;-76
2022/04/03 12:15:20;;;;;;;;;;;;;;;5.06;96.51;98099.22;5074742;28;19924;-76
2022/04/03 12:17:47;;;;;;;;;;;;;;;7.19;95.32;98094.41;5073430;28;19967;-76
2022/04/03 12:20:13;;;;;;;;;;;;;;;7.14;83.64;98091.66;5075339;28;19925;-76
2022/04/03 12:22:41;;;;;;;;;;;;;;;8.09;89.66;98090.69;5076347;28;19924;-76
2022/04/03 12:25:09;;;;;;;;;;;;;;;7.50;76.89;98092.09;5074998;28;19992;-76
2022/04/03 12:27:37;;;;;;;;;;;;;;;7.04;80.66;98097.59;5077749;28;20695;-75
2022/04/03 12:30:04;;;;;;;;;;;;;;;8.06;83.77;98098.34;5079144;28;19924;-75
2022/04/03 12:32:35;;;;;;;;;;;;;;;8.23;75.60;98095.69;5084080;28;20128;-75
2022/04/03 12:35:01;;;;;;;;;;;;;;;5.77;74.98;98095.78;5084141;28;19925;-74
2022/04/03 12:37:32;;;;;;;;;;;;;;;7.78;86.02;98087.78;5072849;28;19952;-76
2022/04/03 12:40:04;;;;;;;;;;;;;;;8.46;84.49;98083.03;5079603;28;19940;-75
2022/04/03 12:42:32;;;;;;;;;;;;;;;8.76;81.66;98084.50;5072220;28;19924;-75
2022/04/03 12:45:00;;;;;;;;;;;;;;;8.87;77.48;98086.22;5081423;28;19921;-77
2022/04/03 12:47:34;;;;;;;;;;;;;;;9.16;81.27;98080.44;5069783;28;20388;-75